Time;durP1;ratioP1;P1;durP2;ratioP2;P2;SDS_P1;SDS_P2;PMS_P1;PMS_P2;Temp;Humidity;BMP_temperature;BMP_pressure;BME280_temperature;BME280_humidity;BME280_pressure;Samples;Min_cycle;Max_cycle;Signal;HPM_P1;HPM_P2
2023/11/26 00:00:30;;;;;;;3.90;2.90;;;;;;;-1.77;77.79;91308.03;4930588;28;20461;-77
2023/11/26 00:02:56;;;;;;;2.83;2.03;;;;;;;-1.71;78.82;91313.91;4945821;28;20040;-77
2023/11/26 00:05:22;;;;;;;3.92;2.55;;;;;;;-1.78;78.17;91316.94;4946019;28;20031;-77
2023/11/26 00:07:47;;;;;;;1.63;1.52;;;;;;;-1.66;78.02;91342.44;4924070;28;20078;-77
2023/11/26 00:10:13;;;;;;;1.70;1.60;;;;;;;-1.66;77.52;91338.00;4925289;28;20224;-76
2023/11/26 00:12:39;;;;;;;1.60;1.50;;;;;;;-1.44;76.27;91345.03;4931533;28;20505;-77
2023/11/26 00:15:05;;;;;;;1.60;1.40;;;;;;;-1.67;77.08;91352.09;4929460;28;20190;-77
2023/11/26 00:17:31;;;;;;;1.65;1.55;;;;;;;-1.49;77.35;91361.56;4928400;28;20039;-78
2023/11/26 00:19:57;;;;;;;3.17;1.80;;;;;;;-1.54;76.73;91351.25;4926451;28;20031;-77
2023/11/26 00:22:27;;;;;;;3.17;2.13;;;;;;;-1.60;77.09;91344.63;4927813;28;20043;-76
2023/11/26 00:24:52;;;;;;;2.55;1.70;;;;;;;-1.53;76.71;91375.47;4921690;28;20502;-77
2023/11/26 00:27:18;;;;;;;1.60;1.50;;;;;;;-1.51;76.60;91381.91;4933661;28;20393;-77
2023/11/26 00:29:43;;;;;;;1.45;1.35;;;;;;;-1.54;76.68;91372.09;4930911;28;20436;-78
2023/11/26 00:32:09;;;;;;;1.45;1.35;;;;;;;-1.54;76.80;91348.66;4930785;28;20488;-76
2023/11/26 00:34:36;;;;;;;1.98;1.80;;;;;;;-1.53;76.66;91355.41;4927312;28;20563;-78
2023/11/26 00:37:02;;;;;;;2.33;2.10;;;;;;;-1.46;76.68;91340.09;4930332;28;20423;-76
2023/11/26 00:39:28;;;;;;;2.22;1.80;;;;;;;-1.27;75.43;91345.13;4937442;28;20129;-78
2023/11/26 00:41:53;;;;;;;1.95;1.77;;;;;;;-1.15;75.27;91360.97;4932009;28;20450;-75
2023/11/26 00:44:19;;;;;;;1.40;1.30;;;;;;;-1.29;75.31;91346.47;4938234;28;20043;-78
2023/11/26 00:47:01;;;;;;;1.52;1.30;;;;;;;-1.36;75.89;91375.56;4935435;28;20039;-75
2023/11/26 00:49:26;;;;;;;1.40;1.30;;;;;;;-1.21;75.37;91377.81;4939962;28;20518;-77
2023/11/26 00:51:52;;;;;;;2.03;1.90;;;;;;;-1.44;76.04;91368.47;4931545;28;22158;-76
2023/11/26 00:54:18;;;;;;;1.60;1.50;;;;;;;-1.24;75.82;91362.75;4939404;28;20020;-77
2023/11/26 00:56:44;;;;;;;1.73;1.63;;;;;;;-1.30;76.31;91369.16;4936262;28;20479;-78
2023/11/26 00:59:10;;;;;;;1.52;1.35;;;;;;;-1.25;75.64;91369.03;4937169;28;20449;-78
2023/11/26 01:01:35;;;;;;;2.22;1.52;;;;;;;-1.45;75.44;91348.69;4935035;28;20031;-75
2023/11/26 01:04:01;;;;;;;1.73;1.63;;;;;;;-1.14;75.53;91375.53;4937006;28;20040;-75
2023/11/26 01:06:26;;;;;;;1.63;1.52;;;;;;;-1.26;75.64;91388.34;4929311;28;20383;-74
2023/11/26 01:08:52;;;;;;;1.30;1.20;;;;;;;-1.28;75.67;91364.44;4935587;28;20031;-78
2023/11/26 01:11:17;;;;;;;1.00;1.00;;;;;;;-1.30;74.67;91335.28;4933828;28;20040;-76
2023/11/26 01:13:43;;;;;;;1.80;1.33;;;;;;;-1.05;74.22;91371.13;4935576;28;20039;-78
2023/11/26 01:16:09;;;;;;;1.27;1.17;;;;;;;-1.24;74.62;91360.16;4937278;28;20521;-74
2023/11/26 01:18:37;;;;;;;1.20;1.10;;;;;;;-0.95;74.11;91394.34;4936008;28;20513;-77
2023/11/26 01:21:03;;;;;;;1.92;1.63;;;;;;;-1.25;74.55;91363.81;4934232;28;20035;-76
2023/11/26 01:23:29;;;;;;;1.85;1.33;;;;;;;-1.27;75.36;91391.28;4936964;28;20039;-75
2023/11/26 01:25:54;;;;;;;1.67;1.58;;;;;;;-1.23;75.38;91395.59;4935385;28;20038;-76
2023/11/26 01:28:20;;;;;;;1.10;1.10;;;;;;;-1.24;75.48;91388.84;4933756;28;20043;-74
2023/11/26 01:30:46;;;;;;;2.63;1.23;;;;;;;-1.31;75.82;91401.50;4936295;28;20027;-78
2023/11/26 01:33:11;;;;;;;1.98;1.10;;;;;;;-1.32;76.17;91388.81;4933093;28;20046;-77
2023/11/26 01:35:37;;;;;;;1.48;1.38;;;;;;;-1.20;75.19;91389.78;4934120;28;20041;-74
2023/11/26 01:38:03;;;;;;;1.17;1.13;;;;;;;-1.22;75.63;91394.53;4931762;28;20047;-78
2023/11/26 01:40:28;;;;;;;1.30;1.20;;;;;;;-1.23;75.67;91424.28;4934157;28;20050;-77
2023/11/26 01:42:55;;;;;;;1.50;1.40;;;;;;;-1.40;76.64;91418.94;4941842;28;20034;-77
2023/11/26 01:45:21;;;;;;;5.45;3.25;;;;;;;-1.45;76.41;91419.06;4933191;28;20019;-77
2023/11/26 01:47:47;;;;;;;2.80;2.08;;;;;;;-1.42;76.81;91426.31;4937348;28;20027;-78
2023/11/26 01:50:24;;;;;;;3.22;2.92;;;;;;;-1.39;76.31;91441.34;4924619;28;20142;-75
2023/11/26 01:52:51;;;;;;;2.25;2.05;;;;;;;-1.59;76.63;91436.59;4934513;28;20035;-76
2023/11/26 01:55:18;;;;;;;1.75;1.65;;;;;;;-1.61;76.51;91416.06;4931429;28;20050;-75
2023/11/26 01:57:45;;;;;;;1.55;1.45;;;;;;;-1.42;76.49;91442.72;4930631;28;20391;-73
2023/11/26 02:00:13;;;;;;;1.50;1.40;;;;;;;-1.52;76.96;91444.78;4930969;28;20862;-76
2023/11/26 02:02:40;;;;;;;1.35;1.20;;;;;;;-1.69;77.56;91439.44;4930050;28;20196;-77
2023/11/26 02:05:09;;;;;;;1.13;1.13;;;;;;;-1.46;77.54;91461.88;4933042;28;20034;-76
2023/11/26 02:07:36;;;;;;;1.35;1.23;;;;;;;-1.47;77.28;91444.69;4932418;28;20629;-77
2023/11/26 02:10:01;;;;;;;1.13;1.13;;;;;;;-1.82;79.38;91456.66;4928762;28;20594;-76
2023/11/26 02:12:27;;;;;;;1.35;1.30;;;;;;;-1.66;79.37;91477.94;4931206;28;20043;-77
2023/11/26 02:14:52;;;;;;;1.40;1.30;;;;;;;-1.70;78.75;91463.97;4930194;28;21030;-76
2023/11/26 02:17:18;;;;;;;1.48;1.30;;;;;;;-1.64;77.86;91478.41;4946556;28;20770;-77
2023/11/26 02:19:44;;;;;;;1.48;1.38;;;;;;;-1.61;77.38;91467.41;4932165;28;20734;-77
2023/11/26 02:22:10;;;;;;;1.55;1.40;;;;;;;-1.51;77.53;91495.88;4935611;28;20035;-76
2023/11/26 02:24:46;;;;;;;1.90;1.80;;;;;;;-1.60;77.12;91502.81;4927445;28;20042;-76
2023/11/26 02:27:13;;;;;;;1.70;1.60;;;;;;;-1.79;78.20;91515.22;4926494;28;21228;-76
2023/11/26 02:29:38;;;;;;;1.60;1.50;;;;;;;-1.91;79.28;91518.34;4932307;28;20046;-77
2023/11/26 02:32:04;;;;;;;1.70;1.60;;;;;;;-1.92;78.99;91522.00;4921992;28;20031;-76
2023/11/26 02:34:30;;;;;;;1.83;1.73;;;;;;;-2.01;79.58;91527.13;4922591;28;20070;-76
2023/11/26 02:36:55;;;;;;;3.35;1.80;;;;;;;-1.99;79.71;91517.19;4931812;28;20471;-76
2023/11/26 02:39:21;;;;;;;1.55;1.45;;;;;;;-1.89;79.59;91532.59;4932309;28;20055;-75
2023/11/26 02:41:46;;;;;;;2.28;1.52;;;;;;;-1.80;78.78;91534.53;4928765;28;20032;-76
2023/11/26 02:44:12;;;;;;;1.60;1.50;;;;;;;-2.03;79.26;91542.25;4932605;28;20122;-76
2023/11/26 02:46:37;;;;;;;1.70;1.60;;;;;;;-2.07;79.23;91535.31;4932652;28;20035;-76
2023/11/26 02:49:08;;;;;;;1.67;1.58;;;;;;;-2.00;79.82;91549.53;4930679;28;20567;-77
2023/11/26 02:51:34;;;;;;;1.60;1.50;;;;;;;-1.98;79.49;91538.78;4932070;28;20419;-76
2023/11/26 02:54:00;;;;;;;1.40;1.30;;;;;;;-1.98;79.62;91549.22;4929676;28;20511;-77
2023/11/26 02:56:25;;;;;;;1.50;1.40;;;;;;;-2.20;80.41;91552.50;4928316;28;20036;-76
2023/11/26 02:58:51;;;;;;;2.60;2.40;;;;;;;-2.14;80.57;91561.00;4932883;28;20507;-79
2023/11/26 03:01:18;;;;;;;1.70;1.60;;;;;;;-2.17;81.04;91572.75;4930134;28;20487;-76
2023/11/26 03:03:46;;;;;;;1.77;1.67;;;;;;;-2.23;81.25;91567.91;4929030;28;20643;-75
2023/11/26 03:06:15;;;;;;;1.50;1.40;;;;;;;-2.21;80.96;91574.38;4935217;28;20438;-77
2023/11/26 03:08:43;;;;;;;4.10;2.03;;;;;;;-2.21;80.31;91571.78;4927520;28;20039;-76
2023/11/26 03:13:55;;;;;;;1.50;1.40;;;;;;;-2.13;80.60;91586.72;4932312;28;21068;-76
2023/11/26 03:16:21;;;;;;;1.63;1.52;;;;;;;-2.35;84.69;91599.63;4930301;28;20072;-77
2023/11/26 03:18:49;;;;;;;7.80;2.00;;;;;;;-2.45;86.03;91594.59;4946466;28;20023;-76
2023/11/26 03:21:16;;;;;;;2.15;2.00;;;;;;;-2.62;85.92;91582.13;4930679;28;20081;-76
2023/11/26 03:23:53;;;;;;;2.38;1.83;;;;;;;-2.68;85.84;91598.13;4932796;28;20498;-75
2023/11/26 03:26:25;;;;;;;4.32;2.15;;;;;;;-2.71;84.57;91605.44;4928117;28;20381;-77
2023/11/26 03:28:54;;;;;;;2.55;2.25;;;;;;;-2.60;83.94;91613.06;4932349;28;20031;-77
2023/11/26 03:31:21;;;;;;;2.05;1.83;;;;;;;-2.78;83.96;91610.22;4929223;28;20043;-76
2023/11/26 03:33:47;;;;;;;4.07;2.60;;;;;;;-2.67;83.60;91620.47;4934334;28;20028;-75
2023/11/26 03:36:12;;;;;;;4.07;3.17;;;;;;;-2.84;84.58;91626.97;4930038;28;20793;-76
2023/11/26 03:38:38;;;;;;;3.22;2.92;;;;;;;-2.81;85.22;91634.22;4930158;28;20051;-76
2023/11/26 03:41:03;;;;;;;3.97;2.90;;;;;;;-2.87;84.44;91611.91;4945158;28;20035;-76
2023/11/26 03:43:29;;;;;;;4.03;3.22;;;;;;;-2.93;83.20;91602.69;4930563;28;20134;-76
2023/11/26 03:45:56;;;;;;;5.40;3.55;;;;;;;-2.65;82.43;91649.59;4930414;28;20071;-77
2023/11/26 03:48:22;;;;;;;3.75;3.40;;;;;;;-2.78;82.43;91631.03;4929441;28;20030;-76
2023/11/26 03:50:47;;;;;;;3.95;3.55;;;;;;;-2.68;81.57;91637.16;4932221;28;20101;-77
2023/11/26 03:53:14;;;;;;;3.47;3.17;;;;;;;-2.79;81.75;91645.13;4943351;28;20031;-77
2023/11/26 03:55:40;;;;;;;4.75;3.95;;;;;;;-2.61;81.05;91660.97;4931378;28;20032;-76
2023/11/26 03:58:06;;;;;;;5.38;3.75;;;;;;;-2.71;80.78;91677.50;4925945;28;20041;-76
2023/11/26 04:00:32;;;;;;;5.05;4.07;;;;;;;-3.00;80.75;91643.84;4932511;28;20459;-76
2023/11/26 04:02:57;;;;;;;5.63;4.60;;;;;;;-2.89;80.87;91680.91;4946195;28;20035;-76
2023/11/26 04:05:24;;;;;;;7.47;4.55;;;;;;;-2.85;80.88;91687.84;4930187;28;20043;-77
2023/11/26 04:07:49;;;;;;;7.05;5.32;;;;;;;-2.95;80.32;91653.41;4928983;28;20038;-76
2023/11/26 04:10:15;;;;;;;7.00;5.82;;;;;;;-2.65;80.69;91686.00;4930849;28;20040;-77
2023/11/26 04:12:40;;;;;;;5.45;4.75;;;;;;;-2.55;79.55;91709.28;4929100;28;20051;-77
2023/11/26 04:15:06;;;;;;;7.75;6.07;;;;;;;-2.75;79.71;91705.91;4926043;28;20031;-77
2023/11/26 04:17:33;;;;;;;7.05;5.07;;;;;;;-2.90;78.63;91698.34;4929722;28;20535;-76
2023/11/26 04:20:00;;;;;;;7.20;6.22;;;;;;;-2.64;77.65;91724.00;4924600;28;20062;-75
2023/11/26 04:22:27;;;;;;;5.40;4.70;;;;;;;-2.79;77.37;91712.75;4928456;28;20051;-76
2023/11/26 04:24:53;;;;;;;6.78;5.90;;;;;;;-2.81;77.55;91745.28;4930788;28;20658;-74
2023/11/26 04:27:22;;;;;;;7.32;6.03;;;;;;;-2.88;77.68;91734.47;4928085;28;20435;-76
2023/11/26 04:29:48;;;;;;;7.32;6.47;;;;;;;-2.87;77.20;91746.41;4933994;28;20031;-77
2023/11/26 04:32:14;;;;;;;8.05;6.03;;;;;;;-3.08;76.89;91740.72;4941929;28;20039;-75
2023/11/26 04:34:40;;;;;;;7.40;5.30;;;;;;;-2.87;76.94;91762.78;4928721;28;20058;-75
2023/11/26 04:37:11;;;;;;;10.27;6.35;;;;;;;-2.92;76.50;91773.25;4929661;28;20057;-76
2023/11/26 04:39:38;;;;;;;8.48;5.45;;;;;;;-3.14;77.19;91767.81;4929512;28;20833;-77
2023/11/26 04:42:04;;;;;;;7.47;5.80;;;;;;;-3.41;77.25;91757.19;4929898;28;20043;-77
2023/11/26 04:44:30;;;;;;;9.98;5.82;;;;;;;-3.08;77.38;91781.53;4928816;28;20542;-77
2023/11/26 04:46:55;;;;;;;6.30;5.03;;;;;;;-3.09;77.01;91793.75;4930352;28;20035;-75
2023/11/26 04:49:20;;;;;;;8.27;6.95;;;;;;;-3.18;75.43;91782.44;4928855;28;20054;-77
2023/11/26 04:51:47;;;;;;;17.52;9.43;;;;;;;-3.06;75.94;91805.41;4928919;28;20019;-76
2023/11/26 04:54:13;;;;;;;9.25;7.53;;;;;;;-3.45;76.45;91797.78;4931150;28;20440;-75
2023/11/26 04:56:40;;;;;;;8.95;6.10;;;;;;;-3.17;76.70;91810.72;4931092;28;20044;-76
2023/11/26 04:59:09;;;;;;;6.70;5.75;;;;;;;-2.94;75.42;91818.81;4931699;28;20118;-76
2023/11/26 05:01:43;;;;;;;6.75;5.82;;;;;;;-3.25;74.82;91802.78;4931101;28;20053;-76
2023/11/26 05:04:15;;;;;;;7.40;5.45;;;;;;;-3.17;74.90;91826.31;4923210;28;20044;-76
2023/11/26 05:06:44;;;;;;;6.20;5.43;;;;;;;-3.15;74.03;91836.47;4942601;28;20031;-76
2023/11/26 05:09:13;;;;;;;6.93;5.90;;;;;;;-3.26;74.47;91845.41;4932256;28;20027;-77
2023/11/26 05:11:41;;;;;;;7.45;6.10;;;;;;;-3.33;75.56;91860.56;4929753;28;20573;-75
2023/11/26 05:14:07;;;;;;;7.32;5.63;;;;;;;-3.24;75.01;91861.53;4928029;28;20488;-76
2023/11/26 05:16:33;;;;;;;6.55;5.63;;;;;;;-3.45;73.89;91854.97;4933098;28;20099;-77
2023/11/26 05:18:59;;;;;;;7.38;4.75;;;;;;;-3.29;73.54;91879.75;4927224;28;20082;-74
2023/11/26 05:21:24;;;;;;;7.35;5.28;;;;;;;-3.51;73.41;91874.25;4931650;28;20024;-76
2023/11/26 05:23:50;;;;;;;6.18;4.75;;;;;;;-3.44;74.31;91892.91;4934747;28;20038;-76
2023/11/26 05:26:15;;;;;;;5.72;4.90;;;;;;;-3.66;73.68;91891.50;4934634;28;20114;-75
2023/11/26 05:28:41;;;;;;;6.40;5.70;;;;;;;-3.49;74.15;91917.09;4934094;28;20070;-76
2023/11/26 05:31:07;;;;;;;5.72;4.72;;;;;;;-3.81;73.92;91901.25;4926391;28;20027;-76
2023/11/26 05:33:32;;;;;;;7.30;5.80;;;;;;;-3.72;80.80;91939.38;4934465;28;20795;-76
2023/11/26 05:35:58;;;;;;;5.70;4.38;;;;;;;-3.90;79.42;91941.84;4933405;28;20035;-76
2023/11/26 05:38:25;;;;;;;11.43;7.03;;;;;;;-3.78;78.05;91961.22;4931121;28;20040;-75
2023/11/26 05:40:50;;;;;;;6.90;5.75;;;;;;;-3.68;76.55;91971.56;4933312;28;20038;-77
2023/11/26 05:43:16;;;;;;;8.05;5.15;;;;;;;-3.81;75.09;91982.56;4944678;28;20406;-76
2023/11/26 05:45:43;;;;;;;8.38;4.80;;;;;;;-4.00;73.54;91979.03;4935359;28;20034;-76
2023/11/26 05:48:08;;;;;;;5.70;4.88;;;;;;;-3.84;73.39;91996.06;4931155;28;20027;-76
2023/11/26 05:50:34;;;;;;;8.25;6.07;;;;;;;-3.77;72.94;92004.34;4932758;28;20101;-76
2023/11/26 05:52:59;;;;;;;7.63;6.13;;;;;;;-3.78;72.63;92013.19;4932297;28;20411;-76
2023/11/26 05:55:25;;;;;;;5.55;4.93;;;;;;;-3.83;72.26;92020.22;4933428;28;20044;-76
2023/11/26 05:57:50;;;;;;;4.80;4.30;;;;;;;-3.83;72.17;92015.78;4934541;28;20031;-75
2023/11/26 06:00:16;;;;;;;5.88;4.78;;;;;;;-3.73;71.87;92039.13;4931510;28;20047;-76
2023/11/26 06:02:41;;;;;;;4.80;3.95;;;;;;;-3.91;70.77;92044.94;4932960;28;20032;-75
2023/11/26 06:05:08;;;;;;;5.32;4.18;;;;;;;-4.12;75.00;92025.28;4946957;28;20055;-74
2023/11/26 06:07:34;;;;;;;6.60;3.97;;;;;;;-4.16;74.96;92040.63;4932606;28;20240;-75
2023/11/26 06:10:00;;;;;;;6.53;3.80;;;;;;;-4.37;75.08;92017.59;4931773;28;20047;-77
2023/11/26 06:12:25;;;;;;;4.53;3.92;;;;;;;-3.95;73.19;92069.84;4949491;28;20039;-76
2023/11/26 06:14:51;;;;;;;4.53;4.07;;;;;;;-4.00;73.22;92075.09;4944136;28;20054;-75
2023/11/26 06:17:16;;;;;;;5.70;4.88;;;;;;;-3.92;76.23;92095.31;4947596;28;20062;-76
2023/11/26 06:19:42;;;;;;;6.10;4.47;;;;;;;-3.93;74.97;92088.56;4931481;28;20092;-76
2023/11/26 06:22:07;;;;;;;5.32;4.82;;;;;;;-3.96;73.88;92091.69;4911436;29;20032;-76
2023/11/26 06:24:33;;;;;;;7.57;4.22;;;;;;;-4.15;73.31;92082.94;4916713;29;20040;-76
2023/11/26 06:27:00;;;;;;;8.88;5.45;;;;;;;-4.18;72.39;92088.63;4917609;29;20207;-74
2023/11/26 06:29:26;;;;;;;6.30;5.05;;;;;;;-4.11;77.22;92122.91;4913686;29;20240;-76
2023/11/26 06:31:51;;;;;;;6.13;5.25;;;;;;;-4.24;76.51;92118.25;4915156;29;20455;-76
2023/11/26 06:34:25;;;;;;;5.38;4.45;;;;;;;-4.47;77.72;92117.78;4910996;28;20900;-74
2023/11/26 06:36:50;;;;;;;8.63;5.07;;;;;;;-4.54;77.23;92140.59;4912722;29;20123;-76
2023/11/26 06:39:16;;;;;;;6.40;4.55;;;;;;;-4.67;78.09;92141.13;4911669;29;20051;-77
2023/11/26 06:41:41;;;;;;;5.97;4.85;;;;;;;-4.67;77.32;92159.28;4911715;28;20471;-77
2023/11/26 06:44:07;;;;;;;6.18;4.60;;;;;;;-4.66;76.73;92173.03;4910867;29;20047;-76
2023/11/26 06:46:33;;;;;;;4.88;4.38;;;;;;;-4.62;75.83;92158.50;4903847;28;20046;-76
2023/11/26 06:48:59;;;;;;;5.63;5.13;;;;;;;-4.47;74.51;92187.81;4914535;29;20127;-74
2023/11/26 06:51:24;;;;;;;4.68;4.07;;;;;;;-4.66;74.47;92147.09;4912506;28;20122;-75
2023/11/26 06:53:51;;;;;;;6.05;4.82;;;;;;;-4.47;73.48;92161.09;4912611;28;20099;-76
2023/11/26 06:56:17;;;;;;;6.32;4.40;;;;;;;-4.59;74.06;92168.38;4911434;28;20074;-75
2023/11/26 06:58:44;;;;;;;8.43;4.47;;;;;;;-4.52;73.72;92198.22;4914904;29;20038;-77
2023/11/26 07:01:11;;;;;;;5.38;4.22;;;;;;;-4.56;76.57;92199.78;4902207;28;20407;-75
2023/11/26 07:03:38;;;;;;;6.50;5.10;;;;;;;-4.73;76.74;92188.84;4910295;29;20296;-76
2023/11/26 07:06:09;;;;;;;6.38;4.43;;;;;;;-4.83;74.43;92194.03;4924702;28;20055;-77
2023/11/26 07:08:38;;;;;;;5.93;5.10;;;;;;;-4.72;78.22;92211.16;4903257;28;20626;-75
2023/11/26 07:11:07;;;;;;;7.78;5.38;;;;;;;-4.84;81.41;92202.09;4911885;28;20159;-76
2023/11/26 07:13:33;;;;;;;9.23;4.70;;;;;;;-4.96;82.07;92210.09;4921826;28;20507;-76
2023/11/26 07:16:00;;;;;;;10.00;5.55;;;;;;;-4.69;79.88;92241.00;4908253;29;20031;-74
2023/11/26 07:18:25;;;;;;;9.88;6.45;;;;;;;-4.79;76.51;92225.44;4912216;29;20189;-77
2023/11/26 07:20:51;;;;;;;7.78;5.07;;;;;;;-4.70;75.84;92229.84;4910129;28;20042;-76
2023/11/26 07:23:17;;;;;;;12.38;7.47;;;;;;;-4.67;75.23;92224.13;4927148;28;20103;-76
2023/11/26 07:25:43;;;;;;;9.82;6.55;;;;;;;-4.49;73.89;92259.94;4912811;29;20036;-76
2023/11/26 07:28:11;;;;;;;8.35;5.88;;;;;;;-4.67;73.80;92247.47;4911995;29;20111;-77
2023/11/26 07:30:37;;;;;;;8.05;6.55;;;;;;;-4.47;73.99;92262.28;4922155;28;20972;-76
2023/11/26 07:33:03;;;;;;;12.57;7.90;;;;;;;-4.47;74.19;92273.47;4908381;28;20047;-75
2023/11/26 07:35:30;;;;;;;10.50;5.70;;;;;;;-4.43;72.78;92277.09;4910167;28;20047;-76
2023/11/26 07:37:56;;;;;;;8.90;7.18;;;;;;;-4.41;73.91;92281.25;4913923;29;20150;-76
2023/11/26 07:40:21;;;;;;;7.95;5.95;;;;;;;-4.57;74.53;92281.22;4933133;28;20077;-77
2023/11/26 07:42:49;;;;;;;8.85;7.63;;;;;;;-4.59;75.50;92298.88;4919311;28;20083;-76
2023/11/26 07:45:16;;;;;;;7.68;5.28;;;;;;;-4.62;80.77;92306.38;4912195;29;20027;-76
2023/11/26 07:47:42;;;;;;;6.10;4.85;;;;;;;-4.78;83.47;92318.53;4909358;29;20907;-76
2023/11/26 07:50:08;;;;;;;10.40;6.85;;;;;;;-4.89;83.20;92306.56;4923457;28;20048;-77
2023/11/26 07:52:34;;;;;;;8.82;5.70;;;;;;;-4.81;82.70;92326.81;4906877;28;20118;-78
2023/11/26 07:55:04;;;;;;;11.68;6.63;;;;;;;-4.69;83.42;92306.63;4909381;29;20566;-73
2023/11/26 07:57:34;;;;;;;8.50;5.35;;;;;;;-4.71;79.16;92308.69;4912133;29;20028;-77
2023/11/26 08:00:00;;;;;;;12.50;6.43;;;;;;;-4.57;76.42;92333.13;4908638;29;20519;-77
2023/11/26 08:02:29;;;;;;;7.80;5.90;;;;;;;-5.83;75.48;92138.34;4907805;28;20043;-74
2023/11/26 08:04:55;;;;;;;10.75;7.78;;;;;;;-4.71;74.64;92313.88;4894441;28;20047;-77
2023/11/26 08:07:24;;;;;;;9.02;6.47;;;;;;;-4.47;73.55;92321.97;4893588;28;20036;-76
2023/11/26 08:09:56;;;;;;;14.02;7.28;;;;;;;-4.50;82.50;92356.22;4886085;28;20035;-76
2023/11/26 08:12:24;;;;;;;11.02;6.55;;;;;;;-4.74;81.52;92348.13;4898661;29;20074;-76
2023/11/26 08:14:52;;;;;;;7.05;5.53;;;;;;;-4.72;80.86;92359.00;4883400;28;20083;-77
2023/11/26 08:17:19;;;;;;;8.23;6.38;;;;;;;-5.01;82.04;92352.66;4885867;28;20640;-76
2023/11/26 08:19:45;;;;;;;12.15;6.63;;;;;;;-4.82;80.58;92369.34;4891550;28;20993;-76
2023/11/26 08:22:12;;;;;;;10.82;6.90;;;;;;;-4.83;83.15;92388.53;4902723;29;20039;-76
2023/11/26 08:24:42;;;;;;;8.38;6.97;;;;;;;-5.24;85.37;92379.78;4903320;29;20040;-74
2023/11/26 08:27:09;;;;;;;9.32;7.07;;;;;;;-5.09;86.13;92402.41;4884199;28;20041;-76
2023/11/26 08:29:35;;;;;;;10.02;6.18;;;;;;;-5.19;84.78;92386.81;4922786;28;20597;-76
2023/11/26 08:32:03;;;;;;;9.38;5.07;;;;;;;-4.78;81.53;92422.25;4922313;28;20046;-76
2023/11/26 08:34:34;;;;;;;12.00;6.40;;;;;;;-5.08;81.17;92389.22;4883169;28;20466;-76
2023/11/26 08:37:04;;;;;;;9.10;6.22;;;;;;;-5.08;86.21;92409.94;4926123;28;20061;-75
2023/11/26 08:39:33;;;;;;;8.25;5.90;;;;;;;-5.05;87.23;92437.94;4924599;28;20039;-75
2023/11/26 08:41:59;;;;;;;9.23;5.05;;;;;;;-5.17;86.06;92431.41;4902268;28;20511;-74
2023/11/26 08:44:24;;;;;;;8.65;5.70;;;;;;;-5.01;85.95;92451.19;4898779;29;20177;-76
2023/11/26 08:46:50;;;;;;;6.53;5.53;;;;;;;-5.00;85.49;92473.50;4922283;28;20122;-73
2023/11/26 08:49:20;;;;;;;10.55;5.85;;;;;;;-5.00;81.83;92450.94;4916504;28;20244;-75
2023/11/26 08:51:58;;;;;;;8.48;5.82;;;;;;;-4.91;82.27;92459.03;4894083;28;20845;-75
2023/11/26 08:54:29;;;;;;;8.23;5.88;;;;;;;-4.83;80.92;92463.72;4930081;28;20027;-75
2023/11/26 08:56:56;;;;;;;9.48;5.95;;;;;;;-4.83;78.48;92468.91;4899504;28;20047;-75
2023/11/26 08:59:22;;;;;;;7.50;5.47;;;;;;;-4.75;74.92;92473.66;4900262;28;20051;-75
2023/11/26 09:01:47;;;;;;;11.07;5.85;;;;;;;-4.73;74.46;92489.72;4903629;28;20118;-75
2023/11/26 09:04:13;;;;;;;7.55;5.50;;;;;;;-4.70;73.52;92471.06;4907300;29;20051;-76
2023/11/26 09:06:48;;;;;;;9.30;4.97;;;;;;;-4.56;71.72;92482.56;4908072;29;20131;-74
2023/11/26 09:09:13;;;;;;;;;;;;;;;-4.45;71.09;92499.75;4930278;28;20050;-75
2023/11/26 09:11:50;;;;;;;5.90;4.68;;;;;;;-4.51;74.11;92492.19;4927024;28;19961;-73
2023/11/26 09:14:23;;;;;;;7.93;6.47;;;;;;;-4.50;72.11;92486.75;4928202;28;20051;-74
2023/11/26 09:16:53;;;;;;;6.70;5.20;;;;;;;-4.36;72.57;92499.25;4918169;28;20051;-75
2023/11/26 09:19:22;;;;;;;6.90;4.13;;;;;;;-4.51;70.17;92492.97;4921819;28;20051;-73
2023/11/26 09:21:50;;;;;;;5.10;4.65;;;;;;;-4.32;72.36;92495.13;4929046;28;20086;-73
2023/11/26 09:24:17;;;;;;;7.40;5.28;;;;;;;-4.32;76.10;92505.50;4931434;28;20043;-76
2023/11/26 09:26:44;;;;;;;7.72;5.07;;;;;;;-4.09;72.38;92499.88;4943891;28;20028;-74
2023/11/26 09:29:10;;;;;;;4.88;4.10;;;;;;;-3.94;68.81;92505.13;4925260;28;20043;-72
2023/11/26 09:31:43;;;;;;;4.93;4.43;;;;;;;-4.18;81.87;92506.59;4920332;28;20465;-75
2023/11/26 09:34:12;;;;;;;6.88;5.40;;;;;;;-4.55;84.08;92519.66;4906370;28;20657;-73
2023/11/26 09:36:45;;;;;;;9.27;5.10;;;;;;;-4.55;86.40;92510.06;4912033;28;20047;-74
2023/11/26 09:41:49;;;;;;;;;;;;;;;-4.53;81.41;92504.63;4941408;23;20054;-81
2023/11/26 09:44:22;;;;;;;5.93;4.88;;;;;;;-5.59;80.18;92364.00;4954818;28;20226;-84
2023/11/26 09:46:50;;;;;;;4.90;3.78;;;;;;;-6.23;76.79;92268.28;4940353;28;20038;-84
2023/11/26 09:49:16;;;;;;;8.07;6.13;;;;;;;-5.72;74.92;92346.31;4954536;28;20058;-83
2023/11/26 09:51:43;;;;;;;15.15;10.70;;;;;;;-4.38;74.18;92511.69;4959587;28;20030;-85
2023/11/26 09:54:23;;;;;;;7.78;6.60;;;;;;;-4.91;70.93;92404.56;4933310;28;20883;-83
2023/11/26 09:57:05;;;;;;;6.20;4.45;;;;;;;-5.05;70.65;92409.44;4957728;28;20031;-84
2023/11/26 09:59:40;;;;;;;6.13;5.00;;;;;;;-4.40;70.65;92459.28;4921167;29;20095;-83
2023/11/26 10:02:10;;;;;;;4.72;3.78;;;;;;;-3.96;68.25;92533.19;4922256;29;20040;-82
2023/11/26 10:04:49;;;;;;;8.65;6.00;;;;;;;-4.39;68.16;92448.63;4887596;28;20129;-82
2023/11/26 10:07:17;;;;;;;10.68;4.90;;;;;;;-5.10;67.93;92344.59;4907695;29;20040;-85
2023/11/26 10:10:02;;;;;;;9.55;6.18;;;;;;;-3.83;71.23;92532.69;4903252;28;20843;-85
2023/11/26 10:12:31;;;;;;;6.93;5.47;;;;;;;-4.48;69.05;92437.97;4907599;29;20032;-83
2023/11/26 10:15:05;;;;;;;6.50;5.57;;;;;;;-4.54;66.90;92420.81;4905126;28;20070;-85
2023/11/26 10:17:31;;;;;;;9.07;5.25;;;;;;;-4.24;67.35;92445.28;4890627;29;20062;-86
2023/11/26 10:20:18;;;;;;;7.38;5.00;;;;;;;-3.49;64.94;92547.84;4896670;29;20044;-84
2023/11/26 10:23:02;;;;;;;8.07;5.43;;;;;;;-3.60;65.15;92532.22;4916054;29;20036;-87
2023/11/26 10:25:28;;;;;;;9.23;5.53;;;;;;;-3.23;64.47;92554.66;4916141;29;20111;-88
2023/11/26 10:27:59;;;;;;;8.57;6.15;;;;;;;-3.35;62.77;92544.47;4925816;28;20065;-84
2023/11/26 10:30:44;;;;;;;6.45;5.28;;;;;;;-3.39;63.54;92566.84;4928998;29;20217;-89
2023/11/26 10:33:18;;;;;;;7.00;5.07;;;;;;;-4.22;71.40;92430.25;4938822;28;20154;-84
2023/11/26 10:35:48;;;;;;;7.93;7.10;;;;;;;-3.23;70.33;92563.22;4925832;28;20083;-87
2023/11/26 10:38:17;;;;;;;4.70;4.20;;;;;;;-3.98;65.67;92466.94;4921703;29;20028;-85
2023/11/26 10:41:26;;;;;;;10.95;7.45;;;;;;;-3.73;65.42;92508.56;4929393;29;20067;-87
2023/11/26 10:44:07;;;;;;;7.65;5.20;;;;;;;-3.06;62.06;92591.56;4925847;29;20052;-89
2023/11/26 10:46:35;;;;;;;9.25;6.68;;;;;;;-3.22;63.71;92587.41;4916775;29;20008;-86
2023/11/26 10:49:27;;;;;;;6.88;6.18;;;;;;;-3.32;62.74;92588.19;4910188;28;20036;-89
2023/11/26 10:52:17;;;;;;;8.43;6.05;;;;;;;-3.20;64.59;92588.72;4907818;29;20516;-87
2023/11/26 10:55:08;;;;;;;9.07;5.13;;;;;;;-3.13;64.86;92596.28;4910005;28;20043;-87
2023/11/26 10:57:40;;;;;;;10.90;6.03;;;;;;;-3.16;64.30;92589.75;4911684;29;20043;-86
2023/11/26 11:00:14;;;;;;;9.63;6.28;;;;;;;-3.60;62.70;92498.44;4907515;29;20052;-85
2023/11/26 11:02:41;;;;;;;7.15;6.45;;;;;;;-3.20;61.60;92572.31;4925818;28;20107;-87
2023/11/26 11:05:09;;;;;;;6.53;5.43;;;;;;;-3.01;61.99;92604.59;4903958;29;20106;-87
2023/11/26 11:07:35;;;;;;;8.35;4.68;;;;;;;-3.49;63.85;92551.22;4909943;28;20331;-85
2023/11/26 11:10:03;;;;;;;7.68;5.35;;;;;;;-3.23;64.47;92607.44;4900800;28;20039;-86
2023/11/26 11:12:42;;;;;;;8.90;5.25;;;;;;;-3.78;63.76;92532.69;4909429;28;20043;-86
2023/11/26 11:15:08;;;;;;;6.60;5.10;;;;;;;-3.42;61.65;92589.97;4901294;28;20489;-86
2023/11/26 11:17:34;;;;;;;7.15;6.45;;;;;;;-3.23;60.73;92628.22;4910139;29;20413;-87
2023/11/26 11:20:10;;;;;;;5.10;4.53;;;;;;;-3.08;60.02;92650.91;4918608;29;20039;-86
2023/11/26 11:22:39;;;;;;;7.60;5.85;;;;;;;-3.00;61.40;92647.00;4917252;28;20095;-84
2023/11/26 11:25:13;;;;;;;6.55;5.07;;;;;;;-3.27;60.95;92640.16;4909443;28;20123;-86
2023/11/26 11:27:55;;;;;;;6.30;4.60;;;;;;;-3.13;62.38;92653.47;4908395;29;20552;-86
2023/11/26 11:30:33;;;;;;;8.07;5.85;;;;;;;-3.14;63.20;92665.69;4911023;29;20070;-85
2023/11/26 11:33:03;;;;;;;5.95;4.80;;;;;;;-3.16;61.02;92648.78;4901507;28;20514;-86
2023/11/26 11:35:50;;;;;;;5.18;4.68;;;;;;;-3.50;65.05;92643.22;4920980;29;20074;-86
2023/11/26 11:38:16;;;;;;;7.82;4.43;;;;;;;-3.28;65.05;92682.03;4921424;29;20048;-86
2023/11/26 11:41:14;;;;;;;6.68;4.43;;;;;;;-3.45;65.85;92684.03;4923548;29;20015;-83
2023/11/26 11:43:43;;;;;;;6.75;4.80;;;;;;;-3.67;64.10;92640.03;4924967;29;20076;-85